sensor_id;sensor_type;location;lat;lon;timestamp;pressure;altitude;pressure_sealevel;temperature;humidity
30073;BME280;16897;52.422;13.678;2023-02-28T00:03:09;102788.34;;;4.03;55.37
30073;BME280;16897;52.422;13.678;2023-02-28T00:07:11;102796.13;;;4.09;55.46
30073;BME280;16897;52.422;13.678;2023-02-28T00:11:14;102766.72;;;3.90;55.32
30073;BME280;16897;52.422;13.678;2023-02-28T00:15:16;102810.75;;;4.07;55.44
30073;BME280;16897;52.422;13.678;2023-02-28T00:19:18;102799.50;;;4.02;55.31
30073;BME280;16897;52.422;13.678;2023-02-28T00:23:20;102792.63;;;3.98;55.33
30073;BME280;16897;52.422;13.678;2023-02-28T00:27:22;102784.81;;;3.93;55.46
30073;BME280;16897;52.422;13.678;2023-02-28T00:31:24;102777.94;;;3.92;55.51
30073;BME280;16897;52.422;13.678;2023-02-28T00:35:25;102783.94;;;3.91;55.38
30073;BME280;16897;52.422;13.678;2023-02-28T00:39:27;102795.22;;;4.01;55.61
30073;BME280;16897;52.422;13.678;2023-02-28T00:43:32;102794.31;;;3.96;55.44
30073;BME280;16897;52.422;13.678;2023-02-28T00:47:33;102784.81;;;3.90;55.34
30073;BME280;16897;52.422;13.678;2023-02-28T00:51:35;102770.13;;;3.82;55.55
30073;BME280;16897;52.422;13.678;2023-02-28T00:55:36;102784.75;;;3.83;55.46
30073;BME280;16897;52.422;13.678;2023-02-28T00:59:39;102713.91;;;3.42;55.50
30073;BME280;16897;52.422;13.678;2023-02-28T01:03:41;102796.84;;;3.88;55.49
30073;BME280;16897;52.422;13.678;2023-02-28T01:07:43;102759.69;;;3.69;55.56
30073;BME280;16897;52.422;13.678;2023-02-28T01:11:45;102747.63;;;3.65;55.60
30073;BME280;16897;52.422;13.678;2023-02-28T01:15:50;102800.34;;;3.93;55.49
30073;BME280;16897;52.422;13.678;2023-02-28T01:19:54;102796.84;;;3.85;55.49
30073;BME280;16897;52.422;13.678;2023-02-28T01:23:57;102788.22;;;3.85;55.35
30073;BME280;16897;52.422;13.678;2023-02-28T01:27:58;102774.41;;;3.76;55.45
30073;BME280;16897;52.422;13.678;2023-02-28T01:32:01;102785.69;;;3.89;55.55
30073;BME280;16897;52.422;13.678;2023-02-28T01:36:05;102796.84;;;3.88;55.54
30073;BME280;16897;52.422;13.678;2023-02-28T01:40:08;102788.22;;;3.83;55.55
30073;BME280;16897;52.422;13.678;2023-02-28T01:48:58;102767.47;;;3.68;55.62
30073;BME280;16897;52.422;13.678;2023-02-28T01:53:03;102792.44;;;3.72;55.46
30073;BME280;16897;52.422;13.678;2023-02-28T01:57:10;102791.56;;;3.70;55.57
30073;BME280;16897;52.422;13.678;2023-02-28T02:01:13;102782.06;;;3.66;55.63
30073;BME280;16897;52.422;13.678;2023-02-28T02:05:24;102790.72;;;3.71;55.69
30073;BME280;16897;52.422;13.678;2023-02-28T02:09:26;102793.31;;;3.71;55.60
30073;BME280;16897;52.422;13.678;2023-02-28T02:17:39;102770.00;;;3.60;55.60
30073;BME280;16897;52.422;13.678;2023-02-28T02:43:53;102775.91;;;3.47;55.57
30073;BME280;16897;52.422;13.678;2023-02-28T02:47:57;102789.69;;;3.44;55.59
30073;BME280;16897;52.422;13.678;2023-02-28T02:52:05;102692.81;;;2.84;55.62
30073;BME280;16897;52.422;13.678;2023-02-28T02:56:08;102771.47;;;3.27;55.42
30073;BME280;16897;52.422;13.678;2023-02-28T03:00:10;102771.44;;;3.23;55.53
30073;BME280;16897;52.422;13.678;2023-02-28T03:04:16;102745.44;;;3.03;55.66
30073;BME280;16897;52.422;13.678;2023-02-28T03:08:22;102775.66;;;3.15;55.68
30073;BME280;16897;52.422;13.678;2023-02-28T03:12:32;102739.31;;;2.90;55.54
30073;BME280;16897;52.422;13.678;2023-02-28T03:16:38;102740.19;;;2.94;55.53
30073;BME280;16897;52.422;13.678;2023-02-28T03:20:56;102708.97;;;2.66;55.52
30073;BME280;16897;52.422;13.678;2023-02-28T03:29:23;102713.16;;;2.53;55.31
30073;BME280;16897;52.422;13.678;2023-02-28T03:33:41;102728.66;;;2.56;55.48
30073;BME280;16897;52.422;13.678;2023-02-28T03:37:46;102726.88;;;2.49;55.64
30073;BME280;16897;52.422;13.678;2023-02-28T03:41:57;102784.81;;;2.82;55.66
30073;BME280;16897;52.422;13.678;2023-02-28T03:46:02;102768.38;;;2.71;55.56
30073;BME280;16897;52.422;13.678;2023-02-28T03:54:53;102795.09;;;2.80;55.40
30073;BME280;16897;52.422;13.678;2023-02-28T03:58:58;102791.59;;;2.71;55.53
30073;BME280;16897;52.422;13.678;2023-02-28T04:03:03;102794.13;;;2.68;55.38
30073;BME280;16897;52.422;13.678;2023-02-28T04:07:07;102777.69;;;2.58;55.61
30073;BME280;16897;52.422;13.678;2023-02-28T04:11:42;102806.22;;;2.73;55.57
30073;BME280;16897;52.422;13.678;2023-02-28T04:15:45;102775.88;;;2.49;55.31
30073;BME280;16897;52.422;13.678;2023-02-28T04:19:46;102800.94;;;2.62;55.57
30073;BME280;16897;52.422;13.678;2023-02-28T04:23:48;102811.28;;;2.65;55.35
30073;BME280;16897;52.422;13.678;2023-02-28T04:27:49;102722.16;;;2.13;55.46
30073;BME280;16897;52.422;13.678;2023-02-28T04:31:51;102822.41;;;2.61;55.57
30073;BME280;16897;52.422;13.678;2023-02-28T04:36:05;102815.47;;;2.56;55.51
30073;BME280;16897;52.422;13.678;2023-02-28T04:40:09;102805.91;;;2.47;55.44
30073;BME280;16897;52.422;13.678;2023-02-28T04:44:10;102807.66;;;2.50;55.46
30073;BME280;16897;52.422;13.678;2023-02-28T04:48:12;102821.34;;;2.44;55.54
30073;BME280;16897;52.422;13.678;2023-02-28T04:52:14;102838.56;;;2.47;55.40
30073;BME280;16897;52.422;13.678;2023-02-28T04:56:17;102797.03;;;2.22;55.62
30073;BME280;16897;52.422;13.678;2023-02-28T05:00:19;102813.34;;;2.24;55.35
30073;BME280;16897;52.422;13.678;2023-02-28T05:04:21;102766.56;;;1.93;55.50
30073;BME280;16897;52.422;13.678;2023-02-28T05:08:22;102811.56;;;2.18;55.38
30073;BME280;16897;52.422;13.678;2023-02-28T05:12:24;102813.22;;;2.13;55.64
30073;BME280;16897;52.422;13.678;2023-02-28T05:16:26;102839.16;;;2.26;55.58
30073;BME280;16897;52.422;13.678;2023-02-28T05:20:27;102827.84;;;2.16;55.54
30073;BME280;16897;52.422;13.678;2023-02-28T05:24:28;102813.94;;;2.03;55.49
30073;BME280;16897;52.422;13.678;2023-02-28T05:28:30;102742.78;;;1.49;55.46
30073;BME280;16897;52.422;13.678;2023-02-28T05:32:31;102837.13;;;2.05;55.48
30073;BME280;16897;52.422;13.678;2023-02-28T05:36:33;102818.91;;;1.91;55.52
30073;BME280;16897;52.422;13.678;2023-02-28T05:40:35;102853.41;;;2.02;55.37
30073;BME280;16897;52.422;13.678;2023-02-28T05:44:39;102803.16;;;1.71;55.45
30073;BME280;16897;52.422;13.678;2023-02-28T05:48:41;102827.34;;;1.81;55.43
30073;BME280;16897;52.422;13.678;2023-02-28T05:52:43;102854.94;;;1.88;55.62
30073;BME280;16897;52.422;13.678;2023-02-28T05:56:45;102840.19;;;1.77;55.51
30073;BME280;16897;52.422;13.678;2023-02-28T06:00:47;102858.31;;;1.84;55.45
30073;BME280;16897;52.422;13.678;2023-02-28T06:04:49;102839.19;;;1.69;55.37
30073;BME280;16897;52.422;13.678;2023-02-28T06:08:50;102847.78;;;1.68;55.44
30073;BME280;16897;52.422;13.678;2023-02-28T06:12:52;102832.16;;;1.59;55.35
30073;BME280;16897;52.422;13.678;2023-02-28T06:16:53;102843.38;;;1.63;55.36
30073;BME280;16897;52.422;13.678;2023-02-28T06:20:55;102867.56;;;1.71;55.64
30073;BME280;16897;52.422;13.678;2023-02-28T06:24:56;102838.88;;;1.51;55.62
30073;BME280;16897;52.422;13.678;2023-02-28T06:28:59;102862.19;;;1.59;55.53
30073;BME280;16897;52.422;13.678;2023-02-28T06:33:01;102811.00;;;1.25;55.47
30073;BME280;16897;52.422;13.678;2023-02-28T06:37:03;102870.72;;;1.56;55.60
30073;BME280;16897;52.422;13.678;2023-02-28T06:41:05;102880.13;;;1.52;55.68
30073;BME280;16897;52.422;13.678;2023-02-28T06:45:07;102864.50;;;1.42;55.57
30073;BME280;16897;52.422;13.678;2023-02-28T06:49:11;102829.75;;;1.18;55.43
30073;BME280;16897;52.422;13.678;2023-02-28T06:53:13;102891.28;;;1.53;55.59
30073;BME280;16897;52.422;13.678;2023-02-28T06:57:14;102878.25;;;1.44;55.72
30073;BME280;16897;52.422;13.678;2023-02-28T07:01:16;102895.56;;;1.52;55.73
30073;BME280;16897;52.422;13.678;2023-02-28T07:05:18;102899.00;;;1.53;55.53
30073;BME280;16897;52.422;13.678;2023-02-28T07:09:19;102903.34;;;1.54;55.66
30073;BME280;16897;52.422;13.678;2023-02-28T07:13:21;102899.91;;;1.55;55.68
30073;BME280;16897;52.422;13.678;2023-02-28T07:17:23;102808.84;;;1.00;55.73
30073;BME280;16897;52.422;13.678;2023-02-28T07:21:26;102890.22;;;1.42;55.55
30073;BME280;16897;52.422;13.678;2023-02-28T07:25:28;102858.97;;;1.20;55.71
30073;BME280;16897;52.422;13.678;2023-02-28T07:29:29;102858.09;;;1.21;55.57
30073;BME280;16897;52.422;13.678;2023-02-28T07:33:32;102898.97;;;1.50;55.86
30073;BME280;16897;52.422;13.678;2023-02-28T07:37:33;102901.56;;;1.51;55.76
30073;BME280;16897;52.422;13.678;2023-02-28T07:41:38;102904.16;;;1.53;55.80
30073;BME280;16897;52.422;13.678;2023-02-28T07:45:44;102918.94;;;1.63;55.92
30073;BME280;16897;52.422;13.678;2023-02-28T07:49:46;102906.81;;;1.59;56.01
30073;BME280;16897;52.422;13.678;2023-02-28T07:53:48;102859.19;;;1.32;55.92
30073;BME280;16897;52.422;13.678;2023-02-28T07:57:49;102905.25;;;1.67;55.93
30073;BME280;16897;52.422;13.678;2023-02-28T08:01:51;102903.56;;;1.68;55.98
30073;BME280;16897;52.422;13.678;2023-02-28T08:05:52;102916.66;;;1.83;56.03
30073;BME280;16897;52.422;13.678;2023-02-28T08:09:54;102886.44;;;1.71;56.36
30073;BME280;16897;52.422;13.678;2023-02-28T08:13:55;102903.09;;;1.92;56.39
30073;BME280;16897;52.422;13.678;2023-02-28T08:17:57;102915.47;;;2.14;56.51
30073;BME280;16897;52.422;13.678;2023-02-28T08:21:59;102920.88;;;2.31;56.57
30073;BME280;16897;52.422;13.678;2023-02-28T08:26:00;102862.25;;;2.16;56.51
30073;BME280;16897;52.422;13.678;2023-02-28T08:30:02;102883.28;;;2.47;56.65
30073;BME280;16897;52.422;13.678;2023-02-28T08:34:08;102911.19;;;2.79;56.65
30073;BME280;16897;52.422;13.678;2023-02-28T08:38:10;102867.25;;;2.71;56.43
30073;BME280;16897;52.422;13.678;2023-02-28T08:42:11;102844.03;;;2.73;56.53
30073;BME280;16897;52.422;13.678;2023-02-28T08:46:13;102845.97;;;2.89;56.59
30073;BME280;16897;52.422;13.678;2023-02-28T08:50:15;102908.44;;;3.41;56.50
30073;BME280;16897;52.422;13.678;2023-02-28T08:54:17;102892.94;;;3.43;56.58
30073;BME280;16897;52.422;13.678;2023-02-28T08:58:20;102906.94;;;3.65;56.52
30073;BME280;16897;52.422;13.678;2023-02-28T09:02:22;102827.47;;;3.36;56.61
30073;BME280;16897;52.422;13.678;2023-02-28T09:06:25;102883.00;;;3.87;56.84
30073;BME280;16897;52.422;13.678;2023-02-28T09:10:26;102897.84;;;4.11;56.73
30073;BME280;16897;52.422;13.678;2023-02-28T09:14:28;102853.81;;;4.04;56.86
30073;BME280;16897;52.422;13.678;2023-02-28T09:18:30;102911.88;;;4.56;56.96
30073;BME280;16897;52.422;13.678;2023-02-28T09:22:32;102862.69;;;4.49;56.96
30073;BME280;16897;52.422;13.678;2023-02-28T09:26:33;102903.41;;;4.91;56.81
30073;BME280;16897;52.422;13.678;2023-02-28T09:30:35;102908.66;;;5.08;57.01
30073;BME280;16897;52.422;13.678;2023-02-28T09:34:37;102874.13;;;5.03;56.71
30073;BME280;16897;52.422;13.678;2023-02-28T09:38:39;102910.44;;;5.41;56.93
30073;BME280;16897;52.422;13.678;2023-02-28T09:42:42;102915.63;;;5.50;56.63
30073;BME280;16897;52.422;13.678;2023-02-28T09:46:47;102879.34;;;5.47;56.85
30073;BME280;16897;52.422;13.678;2023-02-28T09:50:55;102903.56;;;5.80;56.58
30073;BME280;16897;52.422;13.678;2023-02-28T10:09:01;102909.56;;;6.42;56.40
30073;BME280;16897;52.422;13.678;2023-02-28T10:13:17;102919.06;;;6.54;56.40
30073;BME280;16897;52.422;13.678;2023-02-28T10:17:23;102912.97;;;6.59;56.23
30073;BME280;16897;52.422;13.678;2023-02-28T10:21:36;102905.16;;;6.69;56.28
30073;BME280;16897;52.422;13.678;2023-02-28T10:25:40;102904.25;;;6.77;56.16
30073;BME280;16897;52.422;13.678;2023-02-28T10:30:02;102887.81;;;6.75;55.98
30073;BME280;16897;52.422;13.678;2023-02-28T10:34:04;102843.72;;;6.61;56.16
30073;BME280;16897;52.422;13.678;2023-02-28T10:38:14;102916.22;;;7.14;56.17
30073;BME280;16897;52.422;13.678;2023-02-28T10:42:30;102893.69;;;7.14;56.25
30073;BME280;16897;52.422;13.678;2023-02-28T10:46:31;102878.03;;;7.20;56.19
30073;BME280;16897;52.422;13.678;2023-02-28T10:54:44;102832.06;;;7.30;56.18
30073;BME280;16897;52.422;13.678;2023-02-28T10:59:42;102870.84;;;7.59;56.08
30073;BME280;16897;52.422;13.678;2023-02-28T11:03:33;102865.56;;;7.67;55.84
30073;BME280;16897;52.422;13.678;2023-02-28T11:07:34;102850.81;;;7.69;55.73
30073;BME280;16897;52.422;13.678;2023-02-28T11:11:44;102862.00;;;7.77;55.71
30073;BME280;16897;52.422;13.678;2023-02-28T11:15:55;102863.69;;;7.83;55.47
30073;BME280;16897;52.422;13.678;2023-02-28T11:20:05;102842.78;;;7.93;55.71
30073;BME280;16897;52.422;13.678;2023-02-28T11:24:28;102784.09;;;7.68;55.67
30073;BME280;16897;52.422;13.678;2023-02-28T11:28:37;102804.75;;;7.83;55.59
30073;BME280;16897;52.422;13.678;2023-02-28T11:32:39;102803.75;;;7.93;55.47
30073;BME280;16897;52.422;13.678;2023-02-28T11:36:57;102784.84;;;7.81;55.20
30073;BME280;16897;52.422;13.678;2023-02-28T11:45:43;102868.34;;;8.36;55.13
30073;BME280;16897;52.422;13.678;2023-02-28T11:50:11;102863.03;;;8.47;55.42
30073;BME280;16897;52.422;13.678;2023-02-28T11:58:51;102867.41;;;8.48;54.79
30073;BME280;16897;52.422;13.678;2023-02-28T12:20:37;102840.47;;;8.48;54.34
30073;BME280;16897;52.422;13.678;2023-02-28T12:33:16;102812.63;;;8.53;54.16
30073;BME280;16897;52.422;13.678;2023-02-28T12:37:30;102819.50;;;8.60;54.18
30073;BME280;16897;52.422;13.678;2023-02-28T12:41:40;102815.13;;;8.62;54.11
30073;BME280;16897;52.422;13.678;2023-02-28T12:45:50;102790.78;;;8.64;54.08
30073;BME280;16897;52.422;13.678;2023-02-28T12:49:59;102745.03;;;8.47;54.26
30073;BME280;16897;52.422;13.678;2023-02-28T12:58:54;102743.03;;;8.64;53.74
30073;BME280;16897;52.422;13.678;2023-02-28T13:03:21;102762.03;;;8.72;53.78
30073;BME280;16897;52.422;13.678;2023-02-28T13:12:17;102740.66;;;8.49;53.41
30073;BME280;16897;52.422;13.678;2023-02-28T13:16:19;102756.22;;;8.53;53.80
30073;BME280;16897;52.422;13.678;2023-02-28T13:20:23;102733.88;;;8.35;53.26
30073;BME280;16897;52.422;13.678;2023-02-28T13:24:45;102764.84;;;8.55;53.45
30073;BME280;16897;52.422;13.678;2023-02-28T13:34:04;102757.25;;;8.41;53.13
30073;BME280;16897;52.422;13.678;2023-02-28T13:38:12;102764.06;;;8.50;53.23
30073;BME280;16897;52.422;13.678;2023-02-28T13:46:24;102734.66;;;8.44;53.38
30073;BME280;16897;52.422;13.678;2023-02-28T13:58:54;102751.78;;;8.61;53.38
30073;BME280;16897;52.422;13.678;2023-02-28T14:07:57;102741.41;;;8.57;53.09
30073;BME280;16897;52.422;13.678;2023-02-28T14:42:33;102684.63;;;8.20;52.88
30073;BME280;16897;52.422;13.678;2023-02-28T14:46:37;102665.69;;;8.09;52.79
30073;BME280;16897;52.422;13.678;2023-02-28T14:50:39;102713.13;;;8.29;52.73
30073;BME280;16897;52.422;13.678;2023-02-28T14:54:43;102682.06;;;8.15;52.82
30073;BME280;16897;52.422;13.678;2023-02-28T14:58:52;102671.78;;;8.08;52.66
30073;BME280;16897;52.422;13.678;2023-02-28T15:02:55;102684.75;;;8.11;52.91
30073;BME280;16897;52.422;13.678;2023-02-28T15:07:13;102739.81;;;8.47;52.90
30073;BME280;16897;52.422;13.678;2023-02-28T15:11:17;102706.22;;;8.27;52.75
30073;BME280;16897;52.422;13.678;2023-02-28T15:15:41;102705.38;;;8.25;52.89
30073;BME280;16897;52.422;13.678;2023-02-28T15:19:44;102678.75;;;8.06;52.67
30073;BME280;16897;52.422;13.678;2023-02-28T15:24:03;102657.28;;;7.88;52.71
30073;BME280;16897;52.422;13.678;2023-02-28T15:28:05;102619.38;;;7.70;52.71
30073;BME280;16897;52.422;13.678;2023-02-28T15:32:31;102700.22;;;8.20;52.62
30073;BME280;16897;52.422;13.678;2023-02-28T15:36:33;102732.22;;;8.28;52.67
30073;BME280;16897;52.422;13.678;2023-02-28T15:40:41;102693.47;;;8.07;52.54
30073;BME280;16897;52.422;13.678;2023-02-28T15:44:44;102684.84;;;8.05;52.59
30073;BME280;16897;52.422;13.678;2023-02-28T15:48:52;102720.09;;;8.26;52.52
30073;BME280;16897;52.422;13.678;2023-02-28T15:52:54;102694.44;;;8.00;52.56
30073;BME280;16897;52.422;13.678;2023-02-28T15:57:04;102678.94;;;7.90;52.56
30073;BME280;16897;52.422;13.678;2023-02-28T16:01:24;102728.06;;;8.15;52.58
30073;BME280;16897;52.422;13.678;2023-02-28T16:05:30;102703.16;;;7.97;52.37
30073;BME280;16897;52.422;13.678;2023-02-28T16:09:32;102723.88;;;8.03;52.56
30073;BME280;16897;52.422;13.678;2023-02-28T16:13:34;102729.19;;;7.94;52.48
30073;BME280;16897;52.422;13.678;2023-02-28T16:17:38;102730.06;;;7.94;52.37
30073;BME280;16897;52.422;13.678;2023-02-28T16:21:40;102750.88;;;7.94;52.57
30073;BME280;16897;52.422;13.678;2023-02-28T16:34:17;102687.28;;;7.43;52.31
30073;BME280;16897;52.422;13.678;2023-02-28T18:42:07;102722.22;;;4.94;51.89
30073;BME280;16897;52.422;13.678;2023-02-28T18:46:14;102710.97;;;4.81;52.03
30073;BME280;16897;52.422;13.678;2023-02-28T18:55:33;102692.78;;;4.40;51.94
30073;BME280;16897;52.422;13.678;2023-02-28T18:59:34;102790.38;;;4.95;51.90
30073;BME280;16897;52.422;13.678;2023-02-28T19:03:38;102738.53;;;4.58;51.95
30073;BME280;16897;52.422;13.678;2023-02-28T19:07:40;102726.44;;;4.41;52.06
30073;BME280;16897;52.422;13.678;2023-02-28T19:11:41;102706.56;;;4.22;51.98
30073;BME280;16897;52.422;13.678;2023-02-28T19:15:43;102706.53;;;4.17;51.88
30073;BME280;16897;52.422;13.678;2023-02-28T19:19:44;102703.94;;;4.16;51.90
30073;BME280;16897;52.422;13.678;2023-02-28T19:23:46;102731.53;;;4.23;51.96
30073;BME280;16897;52.422;13.678;2023-02-28T19:27:50;102764.34;;;4.39;52.06
30073;BME280;16897;52.422;13.678;2023-02-28T19:31:51;102778.19;;;4.43;52.18
30073;BME280;16897;52.422;13.678;2023-02-28T19:35:53;102793.66;;;4.38;51.96
30073;BME280;16897;52.422;13.678;2023-02-28T19:39:54;102672.66;;;3.54;52.14
30073;BME280;16897;52.422;13.678;2023-02-28T19:43:57;102730.53;;;3.89;52.23
30073;BME280;16897;52.422;13.678;2023-02-28T19:47:59;102680.44;;;3.58;52.17
30073;BME280;16897;52.422;13.678;2023-02-28T19:52:00;102779.75;;;4.12;52.06
30073;BME280;16897;52.422;13.678;2023-02-28T20:00:11;102784.91;;;4.03;52.09
30073;BME280;16897;52.422;13.678;2023-02-28T20:04:14;102702.75;;;3.51;52.13
30073;BME280;16897;52.422;13.678;2023-02-28T20:08:22;102760.63;;;3.76;52.08
30073;BME280;16897;52.422;13.678;2023-02-28T20:12:23;102717.34;;;3.41;52.06
30073;BME280;16897;52.422;13.678;2023-02-28T20:16:27;102703.50;;;3.31;52.12
30073;BME280;16897;52.422;13.678;2023-02-28T20:20:30;102734.56;;;3.45;52.21
30073;BME280;16897;52.422;13.678;2023-02-28T20:24:35;102753.56;;;3.53;52.15
30073;BME280;16897;52.422;13.678;2023-02-28T20:28:40;102708.59;;;3.21;52.19
30073;BME280;16897;52.422;13.678;2023-02-28T20:32:41;102707.69;;;3.17;52.08
30073;BME280;16897;52.422;13.678;2023-02-28T20:36:48;102756.97;;;3.46;52.13
30073;BME280;16897;52.422;13.678;2023-02-28T20:40:54;102737.97;;;3.35;52.30
30073;BME280;16897;52.422;13.678;2023-02-28T20:44:56;102737.06;;;3.31;52.25
30073;BME280;16897;52.422;13.678;2023-02-28T20:48:58;102685.19;;;2.98;52.26
30073;BME280;16897;52.422;13.678;2023-02-28T20:53:00;102692.94;;;3.02;52.16
30073;BME280;16897;52.422;13.678;2023-02-28T20:57:02;102757.72;;;3.31;52.50
30073;BME280;16897;52.422;13.678;2023-02-28T21:01:11;102763.78;;;3.37;52.37
30073;BME280;16897;52.422;13.678;2023-02-28T21:05:16;102702.41;;;2.99;52.42
30073;BME280;16897;52.422;13.678;2023-02-28T21:09:18;102733.44;;;3.06;52.32
30073;BME280;16897;52.422;13.678;2023-02-28T21:13:19;102686.72;;;2.76;52.21
30073;BME280;16897;52.422;13.678;2023-02-28T21:17:21;102767.97;;;3.21;52.25
30073;BME280;16897;52.422;13.678;2023-02-28T21:21:23;102719.56;;;2.92;52.38
30073;BME280;16897;52.422;13.678;2023-02-28T21:25:25;102737.63;;;2.92;52.28
30073;BME280;16897;52.422;13.678;2023-02-28T21:29:29;102739.28;;;2.87;52.41
30073;BME280;16897;52.422;13.678;2023-02-28T21:33:31;102691.66;;;2.51;52.13
30073;BME280;16897;52.422;13.678;2023-02-28T21:37:35;102734.94;;;2.83;52.47
30073;BME280;16897;52.422;13.678;2023-02-28T21:41:37;102753.91;;;2.86;52.26
30073;BME280;16897;52.422;13.678;2023-02-28T21:45:39;102681.22;;;2.42;52.31
30073;BME280;16897;52.422;13.678;2023-02-28T21:49:41;102750.34;;;2.75;52.31
30073;BME280;16897;52.422;13.678;2023-02-28T21:53:42;102768.38;;;2.74;52.36
30073;BME280;16897;52.422;13.678;2023-02-28T21:57:44;102740.75;;;2.60;52.45
30073;BME280;16897;52.422;13.678;2023-02-28T22:01:48;102748.38;;;2.53;52.32
30073;BME280;16897;52.422;13.678;2023-02-28T22:05:50;102777.75;;;2.67;52.63
30073;BME280;16897;52.422;13.678;2023-02-28T22:09:51;102729.38;;;2.41;52.38
30073;BME280;16897;52.422;13.678;2023-02-28T22:13:56;102774.25;;;2.57;52.52
30073;BME280;16897;52.422;13.678;2023-02-28T22:17:58;102723.13;;;2.22;52.48
30073;BME280;16897;52.422;13.678;2023-02-28T22:22:00;102757.66;;;2.35;52.39
30073;BME280;16897;52.422;13.678;2023-02-28T22:26:03;102738.53;;;2.16;52.28
30073;BME280;16897;52.422;13.678;2023-02-28T22:30:06;102787.75;;;2.36;52.42
30073;BME280;16897;52.422;13.678;2023-02-28T22:34:09;102754.00;;;2.16;52.38
30073;BME280;16897;52.422;13.678;2023-02-28T22:38:11;102713.22;;;1.86;52.33
30073;BME280;16897;52.422;13.678;2023-02-28T22:42:13;102743.38;;;1.92;52.40
30073;BME280;16897;52.422;13.678;2023-02-28T22:46:15;102750.28;;;1.96;52.52
30073;BME280;16897;52.422;13.678;2023-02-28T22:50:16;102779.72;;;2.13;52.43
30073;BME280;16897;52.422;13.678;2023-02-28T22:54:18;102690.50;;;1.56;52.41
30073;BME280;16897;52.422;13.678;2023-02-28T22:58:20;102789.06;;;2.07;52.27
30073;BME280;16897;52.422;13.678;2023-02-28T23:02:24;102768.25;;;1.90;52.45
30073;BME280;16897;52.422;13.678;2023-02-28T23:06:32;102817.47;;;2.08;52.32
30073;BME280;16897;52.422;13.678;2023-02-28T23:10:33;102756.75;;;1.65;52.35
30073;BME280;16897;52.422;13.678;2023-02-28T23:14:35;102811.19;;;1.91;52.64
30073;BME280;16897;52.422;13.678;2023-02-28T23:18:37;102796.34;;;1.73;52.57
30073;BME280;16897;52.422;13.678;2023-02-28T23:22:38;102815.28;;;1.76;52.49
30073;BME280;16897;52.422;13.678;2023-02-28T23:26:43;102805.72;;;1.68;52.55
30073;BME280;16897;52.422;13.678;2023-02-28T23:30:45;102743.34;;;1.31;52.69
30073;BME280;16897;52.422;13.678;2023-02-28T23:34:46;102716.38;;;1.07;52.62
30073;BME280;16897;52.422;13.678;2023-02-28T23:38:49;102748.41;;;1.26;52.71
30073;BME280;16897;52.422;13.678;2023-02-28T23:42:51;102783.03;;;1.45;52.40
30073;BME280;16897;52.422;13.678;2023-02-28T23:46:53;102662.69;;;0.74;52.52
30073;BME280;16897;52.422;13.678;2023-02-28T23:51:03;102695.56;;;0.94;52.51
30073;BME280;16897;52.422;13.678;2023-02-28T23:55:10;102723.31;;;1.12;52.74
30073;BME280;16897;52.422;13.678;2023-02-28T23:59:14;102761.31;;;1.29;52.58
